< < Back
Terminal Aerodrome Forecast


Current Version              Previous Versions:   1  2  3  4  5  6  7  8  9  

Terminal Aerodrome Forecast

246
FTUS42 KGSP 241130
TAFHKY
TAF
KHKY 241130Z 2412/2512 32004KT P6SM BKN210
     FM241700 14003KT P6SM SCT170
     FM242000 22003KT P6SM SCT160
     FM250300 29004KT P6SM FEW220=

Latest METAR

795
SAUS70 KWBC 241100 RRG
MTRHKY
METAR KHKY 241053Z 29003KT 10SM CLR 06/04 A3005 RMK AO2 SLP164
T00610039


USA.gov is the U.S. government's official web portal to all federal, state and local government web resources and services.